createdAt,value
2018-06-28T04:10:07.525Z,1018.4
2018-06-28T04:10:33.027Z,1018.44
2018-06-28T04:10:58.504Z,1018.46
2018-06-28T04:11:24.008Z,1018.44
2018-06-28T04:11:49.510Z,1018.44
2018-06-28T04:12:58.224Z,1018.44
2018-06-28T04:13:23.715Z,1018.46
2018-06-28T04:13:49.218Z,1018.47
2018-06-28T04:14:14.713Z,1018.48
2018-06-28T04:14:40.185Z,1018.46
2018-06-28T04:15:05.659Z,1018.46
2018-06-28T04:15:31.161Z,1018.47
2018-06-28T04:15:56.655Z,1018.46
2018-06-28T04:16:22.137Z,1018.5
2018-06-28T04:16:47.671Z,1018.49
2018-06-28T04:17:13.115Z,1018.49
2018-06-28T04:17:38.598Z,1018.46
2018-06-28T04:18:04.105Z,1018.46
2018-06-28T04:18:29.628Z,1018.5
2018-06-28T04:18:55.112Z,1018.45
2018-06-28T04:19:20.610Z,1018.5
2018-06-28T04:19:46.115Z,1018.44
2018-06-28T04:20:11.596Z,1018.47
2018-06-28T04:20:37.130Z,1018.5
2018-06-28T04:21:02.613Z,1018.45
2018-06-28T04:21:28.091Z,1018.46
2018-06-28T04:21:53.638Z,1018.46
2018-06-28T04:22:19.058Z,1018.45
2018-06-28T04:22:44.576Z,1018.47
2018-06-28T04:23:10.035Z,1018.5
2018-06-28T04:23:35.525Z,1018.46
2018-06-28T04:24:01.021Z,1018.47
2018-06-28T04:24:26.555Z,1018.46
2018-06-28T04:24:52.019Z,1018.47
2018-06-28T04:25:17.490Z,1018.49
2018-06-28T04:25:42.992Z,1018.46
2018-06-28T04:26:08.523Z,1018.45
2018-06-28T04:26:33.986Z,1018.5
2018-06-28T04:26:59.495Z,1018.45
2018-06-28T04:27:25.001Z,1018.44
2018-06-28T04:27:50.461Z,1018.42
2018-06-28T04:28:15.955Z,1018.41
2018-06-28T04:28:41.483Z,1018.42
2018-06-28T04:29:06.999Z,1018.42
2018-06-28T04:29:32.533Z,1018.43
2018-06-28T04:29:58.018Z,1018.42
2018-06-28T04:30:23.594Z,1018.43
2018-06-28T04:30:49.014Z,1018.43
2018-06-28T04:31:14.565Z,1018.41
2018-06-28T04:31:40.072Z,1018.36
2018-06-28T04:32:05.626Z,1018.37
2018-06-28T04:32:31.109Z,1018.36
2018-06-28T04:32:56.620Z,1018.34
2018-06-28T04:33:22.114Z,1018.34
2018-06-28T04:33:47.602Z,1018.4
2018-06-28T04:34:13.057Z,1018.37
2018-06-28T04:34:38.574Z,1018.37
2018-06-28T04:35:04.074Z,1018.39
2018-06-28T04:35:29.575Z,1018.35
2018-06-28T04:35:55.072Z,1018.37
2018-06-28T04:36:20.594Z,1018.39
2018-06-28T04:36:46.069Z,1018.38
2018-06-28T04:37:11.582Z,1018.36
2018-06-28T04:37:37.066Z,1018.37
2018-06-28T04:38:02.560Z,1018.4
2018-06-28T04:38:28.034Z,1018.33
2018-06-28T04:38:53.550Z,1018.37
2018-06-28T04:39:19.063Z,1018.35
2018-06-28T04:39:44.555Z,1018.37
2018-06-28T04:40:10.099Z,1018.38
2018-06-28T04:40:35.585Z,1018.39
2018-06-28T04:41:01.136Z,1018.39
2018-06-28T04:41:26.595Z,1018.35
2018-06-28T04:41:52.092Z,1018.38
2018-06-28T04:42:17.591Z,1018.38
2018-06-28T04:42:43.118Z,1018.37
2018-06-28T04:43:08.660Z,1018.36
2018-06-28T04:43:34.141Z,1018.35
2018-06-28T04:43:59.646Z,1018.34
2018-06-28T04:44:25.135Z,1018.38
2018-06-28T04:44:50.672Z,1018.39
2018-06-28T04:45:16.172Z,1018.37
2018-06-28T04:45:41.666Z,1018.35
2018-06-28T04:46:07.154Z,1018.36
2018-06-28T04:46:32.637Z,1018.37
2018-06-28T04:46:58.115Z,1018.36
2018-06-28T04:47:23.630Z,1018.38
2018-06-28T04:47:49.149Z,1018.37
2018-06-28T04:48:14.640Z,1018.38
2018-06-28T04:48:40.212Z,1018.39
2018-06-28T04:49:05.695Z,1018.4
2018-06-28T04:49:31.189Z,1018.37
2018-06-28T04:49:56.737Z,1018.39
2018-06-28T04:50:22.205Z,1018.39
2018-06-28T04:50:47.678Z,1018.38
2018-06-28T04:51:13.207Z,1018.41
2018-06-28T04:51:38.708Z,1018.38
2018-06-28T04:52:04.210Z,1018.37
2018-06-28T04:52:29.696Z,1018.36
2018-06-28T04:52:55.171Z,1018.4
2018-06-28T04:53:20.672Z,1018.4
2018-06-28T04:53:46.141Z,1018.37
2018-06-28T04:54:11.618Z,1018.39
2018-06-28T04:54:37.137Z,1018.42
2018-06-28T04:55:02.650Z,1018.42
2018-06-28T04:55:28.108Z,1018.41
2018-06-28T04:55:53.609Z,1018.4
2018-06-28T04:56:19.134Z,1018.39
2018-06-28T04:56:44.634Z,1018.43
2018-06-28T04:57:10.148Z,1018.39
2018-06-28T04:57:35.863Z,1018.37
2018-06-28T04:58:01.280Z,1018.39
2018-06-28T04:58:26.819Z,1018.37
2018-06-28T04:58:52.516Z,1018.36
2018-06-28T04:59:17.909Z,1018.37
2018-06-28T04:59:43.601Z,1018.39
2018-06-28T05:00:09.220Z,1018.38
2018-06-28T05:00:34.752Z,1018.35
2018-06-28T05:01:00.204Z,1018.36
2018-06-28T05:01:25.707Z,1018.38
2018-06-28T05:01:51.386Z,1018.38
2018-06-28T05:02:16.899Z,1018.36
2018-06-28T05:02:42.425Z,1018.38
2018-06-28T05:03:07.915Z,1018.38
2018-06-28T05:03:33.393Z,1018.37
2018-06-28T05:03:58.892Z,1018.34
2018-06-28T05:04:24.353Z,1018.37
2018-06-28T05:04:49.847Z,1018.34
2018-06-28T05:05:15.360Z,1018.33
2018-06-28T05:05:40.872Z,1018.31
2018-06-28T05:06:06.361Z,1018.29
2018-06-28T05:06:31.851Z,1018.31
2018-06-28T05:06:57.367Z,1018.28
2018-06-28T05:07:22.912Z,1018.29
2018-06-28T05:07:48.405Z,1018.35
2018-06-28T05:08:13.882Z,1018.33
2018-06-28T05:08:39.350Z,1018.32
2018-06-28T05:09:04.864Z,1018.31
2018-06-28T05:09:30.351Z,1018.33
2018-06-28T05:09:55.877Z,1018.28
2018-06-28T05:10:21.424Z,1018.32
2018-06-28T05:10:46.956Z,1018.31
2018-06-28T05:11:12.432Z,1018.29
2018-06-28T05:11:38.006Z,1018.26
2018-06-28T05:12:03.485Z,1018.31
2018-06-28T05:12:28.968Z,1018.28
2018-06-28T05:12:54.466Z,1018.24
2018-06-28T05:13:19.963Z,1018.28
2018-06-28T05:13:45.452Z,1018.28
2018-06-28T05:14:10.993Z,1018.27
2018-06-28T05:14:36.457Z,1018.25
2018-06-28T05:15:01.945Z,1018.22
2018-06-28T05:15:27.420Z,1018.22
2018-06-28T05:15:52.947Z,1018.25
2018-06-28T05:16:18.446Z,1018.23
2018-06-28T05:17:22.035Z,1018.23
2018-06-28T05:17:47.562Z,1018.25
2018-06-28T05:18:13.042Z,1018.23
2018-06-28T05:18:38.546Z,1018.25
2018-06-28T05:19:04.020Z,1018.27
2018-06-28T05:19:29.529Z,1018.27
2018-06-28T05:19:55.033Z,1018.26
2018-06-28T05:20:20.555Z,1018.24
2018-06-28T05:20:46.072Z,1018.23
2018-06-28T05:21:11.554Z,1018.26
2018-06-28T05:21:37.060Z,1018.26
2018-06-28T05:22:02.575Z,1018.25
2018-06-28T05:22:28.069Z,1018.23
2018-06-28T05:22:53.595Z,1018.22
2018-06-28T05:23:19.061Z,1018.2
2018-06-28T05:23:44.533Z,1018.21
2018-06-28T05:24:10.014Z,1018.19
2018-06-28T05:24:35.530Z,1018.17
2018-06-28T05:25:01.177Z,1018.22
2018-06-28T05:25:26.680Z,1018.24
2018-06-28T05:25:52.183Z,1018.18
2018-06-28T05:26:17.930Z,1018.22
2018-06-28T05:26:43.418Z,1018.23
2018-06-28T05:27:08.898Z,1018.18
2018-06-28T05:27:34.384Z,1018.21
2018-06-28T05:27:59.908Z,1018.18
2018-06-28T05:28:25.427Z,1018.19
2018-06-28T05:28:50.923Z,1018.17
2018-06-28T05:29:16.496Z,1018.16
2018-06-28T05:29:41.901Z,1018.16
2018-06-28T05:30:07.388Z,1018.15
2018-06-28T05:30:32.863Z,1018.15
2018-06-28T05:30:58.347Z,1018.18
2018-06-28T05:31:23.846Z,1018.16
2018-06-28T05:31:49.313Z,1018.21
2018-06-28T05:32:14.832Z,1018.17
2018-06-28T05:32:40.339Z,1018.22
2018-06-28T05:33:05.814Z,1018.17
2018-06-28T05:33:31.326Z,1018.18
2018-06-28T05:33:56.822Z,1018.22
2018-06-28T05:34:22.346Z,1018.19
2018-06-28T05:34:47.834Z,1018.2
2018-06-28T05:35:13.323Z,1018.22
2018-06-28T05:35:38.805Z,1018.16
2018-06-28T05:36:04.308Z,1018.18
2018-06-28T05:36:29.791Z,1018.15
2018-06-28T05:36:55.284Z,1018.2
2018-06-28T05:37:20.739Z,1018.18
2018-06-28T05:37:46.260Z,1018.16
2018-06-28T05:38:11.756Z,1018.14
2018-06-28T05:38:37.282Z,1018.16
2018-06-28T05:39:02.803Z,1018.14
2018-06-28T05:39:28.272Z,1018.14
2018-06-28T05:39:53.762Z,1018.16
2018-06-28T05:40:19.270Z,1018.13
2018-06-28T05:40:44.787Z,1018.15
2018-06-28T05:41:10.255Z,1018.16
2018-06-28T05:41:35.759Z,1018.17
2018-06-28T05:42:01.235Z,1018.15
2018-06-28T05:42:26.755Z,1018.17
2018-06-28T05:42:52.256Z,1018.19
2018-06-28T05:43:17.750Z,1018.17
2018-06-28T05:43:43.281Z,1018.17
2018-06-28T05:44:08.777Z,1018.17
2018-06-28T05:44:34.303Z,1018.19
2018-06-28T05:44:59.805Z,1018.18
2018-06-28T05:45:25.301Z,1018.21
2018-06-28T05:45:50.774Z,1018.2
2018-06-28T05:46:16.293Z,1018.2
2018-06-28T05:46:41.766Z,1018.17
2018-06-28T05:47:07.283Z,1018.19
2018-06-28T05:47:32.769Z,1018.22
2018-06-28T05:47:58.274Z,1018.17
2018-06-28T05:48:23.824Z,1018.24
2018-06-28T05:48:49.330Z,1018.23
2018-06-28T05:49:14.831Z,1018.21
2018-06-28T05:49:40.337Z,1018.22
2018-06-28T05:50:05.787Z,1018.27
2018-06-28T05:50:31.320Z,1018.19
2018-06-28T05:50:56.825Z,1018.2
2018-06-28T05:51:22.322Z,1018.23
2018-06-28T05:51:47.806Z,1018.2
2018-06-28T05:52:13.311Z,1018.25
2018-06-28T05:52:38.827Z,1018.21
2018-06-28T05:53:04.379Z,1018.23
2018-06-28T05:53:29.887Z,1018.21
2018-06-28T05:53:55.320Z,1018.24
2018-06-28T05:54:20.863Z,1018.2
2018-06-28T05:54:46.352Z,1018.21
2018-06-28T05:55:11.856Z,1018.23
2018-06-28T05:55:37.327Z,1018.23
2018-06-28T05:56:02.828Z,1018.21
2018-06-28T05:56:28.354Z,1018.2
2018-06-28T05:56:53.821Z,1018.2
2018-06-28T05:57:19.345Z,1018.21
2018-06-28T05:57:44.876Z,1018.21
2018-06-28T05:58:10.341Z,1018.16
2018-06-28T05:58:35.824Z,1018.18
2018-06-28T05:59:01.355Z,1018.13
2018-06-28T05:59:26.792Z,1018.17
2018-06-28T05:59:52.282Z,1018.21
2018-06-28T06:00:17.768Z,1018.2
2018-06-28T06:00:43.286Z,1018.25
2018-06-28T06:01:08.808Z,1018.2
2018-06-28T06:01:34.317Z,1018.21
2018-06-28T06:01:59.801Z,1018.21
2018-06-28T06:02:25.282Z,1018.23
2018-06-28T06:02:50.795Z,1018.22
2018-06-28T06:03:16.281Z,1018.24
2018-06-28T06:03:41.812Z,1018.23
2018-06-28T06:04:07.333Z,1018.21
2018-06-28T06:04:32.862Z,1018.28
2018-06-28T06:04:58.376Z,1018.22
2018-06-28T06:05:23.879Z,1018.23
2018-06-28T06:05:49.358Z,1018.25
2018-06-28T06:06:14.886Z,1018.25
2018-06-28T06:06:40.369Z,1018.25
2018-06-28T06:07:05.862Z,1018.26
2018-06-28T06:07:31.369Z,1018.26
2018-06-28T06:07:56.862Z,1018.32
2018-06-28T06:08:22.330Z,1018.29
2018-06-28T06:08:47.867Z,1018.29
2018-06-28T06:09:13.352Z,1018.25
2018-06-28T06:09:38.854Z,1018.26
2018-06-28T06:10:04.338Z,1018.23
2018-06-28T06:10:29.825Z,1018.29
2018-06-28T06:10:55.342Z,1018.29
2018-06-28T06:11:20.880Z,1018.26
2018-06-28T06:11:46.352Z,1018.31
2018-06-28T06:12:11.872Z,1018.28
2018-06-28T06:12:37.382Z,1018.32
2018-06-28T06:13:02.862Z,1018.29
2018-06-28T06:13:28.368Z,1018.3
2018-06-28T06:13:53.877Z,1018.26
2018-06-28T06:14:19.378Z,1018.27
2018-06-28T06:14:44.888Z,1018.29
2018-06-28T06:15:10.401Z,1018.32
2018-06-28T06:15:35.880Z,1018.32
2018-06-28T06:16:01.351Z,1018.31
2018-06-28T06:16:26.846Z,1018.35
2018-06-28T06:16:52.330Z,1018.3
2018-06-28T06:17:17.871Z,1018.31
2018-06-28T06:17:43.326Z,1018.32
2018-06-28T06:18:08.801Z,1018.32
2018-06-28T06:18:34.272Z,1018.31
2018-06-28T06:18:59.755Z,1018.34
2018-06-28T06:19:25.258Z,1018.29
2018-06-28T06:19:50.759Z,1018.34
2018-06-28T06:20:16.244Z,1018.32
2018-06-28T06:20:41.727Z,1018.31
2018-06-28T06:21:07.220Z,1018.32
2018-06-28T06:21:32.709Z,1018.35
2018-06-28T06:21:58.195Z,1018.33
2018-06-28T06:22:23.675Z,1018.29
2018-06-28T06:22:49.168Z,1018.33
2018-06-28T06:23:14.675Z,1018.31
2018-06-28T06:23:40.164Z,1018.31
2018-06-28T06:24:05.691Z,1018.31
2018-06-28T06:24:31.185Z,1018.32
2018-06-28T06:24:56.695Z,1018.3
2018-06-28T06:25:22.188Z,1018.34
2018-06-28T06:25:47.685Z,1018.33
2018-06-28T06:26:13.199Z,1018.33
2018-06-28T06:26:38.715Z,1018.34
2018-06-28T06:27:04.200Z,1018.34
2018-06-28T06:27:29.724Z,1018.31
2018-06-28T06:27:55.200Z,1018.34
2018-06-28T06:28:20.694Z,1018.35
2018-06-28T06:28:46.180Z,1018.36
2018-06-28T06:29:11.704Z,1018.35
2018-06-28T06:30:10.346Z,1018.32
2018-06-28T06:30:35.842Z,1018.38
2018-06-28T06:31:01.327Z,1018.32
2018-06-28T06:31:26.851Z,1018.33
2018-06-28T06:31:52.340Z,1018.28
2018-06-28T06:32:17.830Z,1018.3
2018-06-28T06:32:43.369Z,1018.3
2018-06-28T06:33:08.829Z,1018.3
2018-06-28T06:33:34.345Z,1018.28
2018-06-28T06:33:59.863Z,1018.3
2018-06-28T06:34:25.362Z,1018.26
2018-06-28T06:34:50.845Z,1018.29
2018-06-28T06:35:16.340Z,1018.28
2018-06-28T06:35:41.856Z,1018.3
2018-06-28T06:36:07.360Z,1018.32
2018-06-28T06:36:32.840Z,1018.29
2018-06-28T06:36:58.301Z,1018.31
2018-06-28T06:37:23.807Z,1018.26
2018-06-28T06:37:49.339Z,1018.27
2018-06-28T06:38:14.843Z,1018.25
2018-06-28T06:38:40.327Z,1018.28
2018-06-28T06:39:05.844Z,1018.26
2018-06-28T06:39:31.333Z,1018.27
2018-06-28T06:39:56.816Z,1018.21
2018-06-28T06:40:22.437Z,1018.26
2018-06-28T06:40:47.943Z,1018.21
2018-06-28T06:41:13.338Z,1018.22
2018-06-28T06:41:38.853Z,1018.22
2018-06-28T06:42:04.331Z,1018.23
2018-06-28T06:42:29.870Z,1018.22
2018-06-28T06:42:55.328Z,1018.21
2018-06-28T06:43:20.827Z,1018.2
2018-06-28T06:43:46.323Z,1018.21
2018-06-28T06:44:11.821Z,1018.21
2018-06-28T06:44:37.298Z,1018.21
2018-06-28T06:45:02.793Z,1018.22
2018-06-28T06:45:28.315Z,1018.23
2018-06-28T06:45:53.827Z,1018.2
2018-06-28T06:46:19.353Z,1018.18
2018-06-28T06:46:44.882Z,1018.16
2018-06-28T06:47:48.487Z,1018.21
2018-06-28T06:48:13.984Z,1018.18
2018-06-28T06:48:39.559Z,1018.19
2018-06-28T06:49:05.168Z,1018.18
2018-06-28T06:49:30.525Z,1018.19
2018-06-28T06:49:56.020Z,1018.15
2018-06-28T06:50:54.561Z,1018.17
2018-06-28T06:51:20.132Z,1018.19
2018-06-28T06:51:45.576Z,1018.15
2018-06-28T06:52:11.062Z,1018.16
2018-06-28T06:52:36.563Z,1018.18
2018-06-28T06:53:02.062Z,1018.14
2018-06-28T06:53:27.540Z,1018.16
2018-06-28T06:53:53.052Z,1018.16
2018-06-28T06:54:18.551Z,1018.12
2018-06-28T06:54:44.039Z,1018.19
2018-06-28T06:55:09.546Z,1018.17
2018-06-28T06:55:35.039Z,1018.14
2018-06-28T06:56:00.539Z,1018.11
2018-06-28T06:56:26.031Z,1018.14
2018-06-28T06:56:51.489Z,1018.16
2018-06-28T06:57:17.189Z,1018.15
2018-06-28T06:57:42.488Z,1018.13
2018-06-28T06:58:07.924Z,1018.17
2018-06-28T06:58:33.510Z,1018.14
2018-06-28T06:58:59.210Z,1018.12
2018-06-28T06:59:24.554Z,1018.15
2018-06-28T06:59:50.017Z,1018.1
2018-06-28T07:00:15.527Z,1018.15
2018-06-28T07:00:41.041Z,1018.12
2018-06-28T07:01:06.526Z,1018.16
2018-06-28T07:01:32.040Z,1018.16
2018-06-28T07:01:57.557Z,1018.12
2018-06-28T07:02:23.106Z,1018.11
2018-06-28T07:02:48.565Z,1018.12
2018-06-28T07:03:14.085Z,1018.12
2018-06-28T07:03:39.571Z,1018.1
2018-06-28T07:04:05.121Z,1018.12
2018-06-28T07:04:30.857Z,1018.07
2018-06-28T07:04:56.122Z,1018.13
2018-06-28T07:05:21.630Z,1018.09
2018-06-28T07:05:47.182Z,1018.11
2018-06-28T07:06:12.673Z,1018.09
2018-06-28T07:06:38.182Z,1018.08
2018-06-28T07:07:03.659Z,1018.05
2018-06-28T07:07:29.159Z,1018.06
2018-06-28T07:07:54.635Z,1018.06
2018-06-28T07:08:20.124Z,1018.05
2018-06-28T07:08:45.604Z,1018.09
2018-06-28T07:09:11.102Z,1018.08
2018-06-28T07:09:36.581Z,1018.1
2018-06-28T07:10:02.231Z,1018.09
2018-06-28T07:10:28.031Z,1018.11
2018-06-28T07:10:53.347Z,1018.15
2018-06-28T07:11:18.819Z,1018.13
2018-06-28T07:11:44.314Z,1018.12
2018-06-28T07:12:09.804Z,1018.12
2018-06-28T07:12:35.298Z,1018.1
2018-06-28T07:13:00.803Z,1018.12
2018-06-28T07:13:26.348Z,1018.1
2018-06-28T07:13:51.880Z,1018.12
2018-06-28T07:14:17.410Z,1018.08
2018-06-28T07:14:42.880Z,1018.12
2018-06-28T07:15:08.364Z,1018.13
2018-06-28T07:15:33.915Z,1018.13
2018-06-28T07:15:59.521Z,1018.12
2018-06-28T07:16:24.943Z,1018.13
2018-06-28T07:16:50.438Z,1018.13
2018-06-28T07:17:15.930Z,1018.12
2018-06-28T07:17:41.514Z,1018.12
2018-06-28T07:18:06.982Z,1018.11
2018-06-28T07:18:32.641Z,1018.12
2018-06-28T07:18:58.039Z,1018.15
2018-06-28T07:19:23.577Z,1018.14
2018-06-28T07:19:49.058Z,1018.12
2018-06-28T07:20:14.590Z,1018.11
2018-06-28T07:20:40.099Z,1018.12
2018-06-28T07:21:05.596Z,1018.12
2018-06-28T07:21:31.106Z,1018.11
2018-06-28T07:21:56.616Z,1018.11
2018-06-28T07:22:22.124Z,1018.13
2018-06-28T07:22:47.732Z,1018.12
2018-06-28T07:23:13.223Z,1018.13
2018-06-28T07:23:38.718Z,1018.13
2018-06-28T07:24:04.228Z,1018.15
2018-06-28T07:24:29.754Z,1018.17
2018-06-28T07:24:55.244Z,1018.16
2018-06-28T07:25:20.749Z,1018.2
2018-06-28T07:25:46.243Z,1018.17
2018-06-28T07:26:11.701Z,1018.16
2018-06-28T07:26:37.233Z,1018.16
2018-06-28T07:27:02.740Z,1018.2
2018-06-28T07:27:28.216Z,1018.2
2018-06-28T07:27:53.726Z,1018.22
2018-06-28T07:28:19.262Z,1018.17
2018-06-28T07:28:44.925Z,1018.16
2018-06-28T07:29:10.345Z,1018.17
2018-06-28T07:29:35.889Z,1018.18
2018-06-28T07:30:01.366Z,1018.18
2018-06-28T07:30:26.849Z,1018.2
2018-06-28T07:30:52.429Z,1018.19
2018-06-28T07:31:17.922Z,1018.18
2018-06-28T07:31:43.457Z,1018.14
2018-06-28T07:32:08.962Z,1018.17
2018-06-28T07:32:34.438Z,1018.16
2018-06-28T07:32:59.997Z,1018.15
2018-06-28T07:33:25.439Z,1018.17
2018-06-28T07:33:50.939Z,1018.16
2018-06-28T07:34:16.430Z,1018.15
2018-06-28T07:34:41.974Z,1018.16
2018-06-28T07:35:07.460Z,1018.17
2018-06-28T07:35:32.966Z,1018.19
2018-06-28T07:35:58.563Z,1018.2
2018-06-28T07:36:24.059Z,1018.19
2018-06-28T07:36:49.587Z,1018.22
2018-06-28T07:37:15.056Z,1018.2
2018-06-28T07:37:40.548Z,1018.15
2018-06-28T07:38:06.038Z,1018.18
2018-06-28T07:38:31.536Z,1018.17
2018-06-28T07:38:57.064Z,1018.15
2018-06-28T07:39:22.545Z,1018.16
2018-06-28T07:39:48.054Z,1018.16
2018-06-28T07:40:13.537Z,1018.17
2018-06-28T07:40:39.092Z,1018.17
2018-06-28T07:41:04.785Z,1018.16
2018-06-28T07:41:30.303Z,1018.17
2018-06-28T07:41:55.834Z,1018.16
2018-06-28T07:42:21.387Z,1018.18
2018-06-28T07:42:46.798Z,1018.18
2018-06-28T07:43:12.307Z,1018.17
2018-06-28T07:43:37.830Z,1018.19
2018-06-28T07:44:03.341Z,1018.14
2018-06-28T07:44:28.851Z,1018.14
2018-06-28T07:44:54.352Z,1018.19
2018-06-28T07:45:19.832Z,1018.13
2018-06-28T07:45:45.314Z,1018.16
2018-06-28T07:46:10.799Z,1018.18
2018-06-28T07:46:36.318Z,1018.11
2018-06-28T07:47:01.873Z,1018.12
2018-06-28T07:47:27.332Z,1018.1
2018-06-28T07:47:52.823Z,1018.11
2018-06-28T07:48:18.305Z,1018.1
2018-06-28T07:48:43.812Z,1018.1
2018-06-28T07:49:09.341Z,1018.11
2018-06-28T07:49:34.821Z,1018.12
2018-06-28T07:50:00.332Z,1018.13
2018-06-28T07:50:25.847Z,1018.11
2018-06-28T07:50:51.334Z,1018.15
2018-06-28T07:51:16.835Z,1018.11
2018-06-28T07:51:42.348Z,1018.1
2018-06-28T07:52:07.811Z,1018.12
2018-06-28T07:52:33.348Z,1018.09
2018-06-28T07:52:58.851Z,1018.11
2018-06-28T07:53:24.346Z,1018.12
2018-06-28T07:53:49.856Z,1018.12
2018-06-28T07:54:15.377Z,1018.13
2018-06-28T07:54:40.884Z,1018.13
2018-06-28T07:55:06.390Z,1018.15
2018-06-28T07:55:31.945Z,1018.07
2018-06-28T07:56:35.528Z,1018.14
2018-06-28T07:57:01.016Z,1018.08
2018-06-28T07:57:26.519Z,1018.1
2018-06-28T07:57:52.017Z,1018.11
2018-06-28T07:58:17.521Z,1018.07
2018-06-28T07:58:43.003Z,1018.06
2018-06-28T07:59:08.496Z,1018.08
2018-06-28T07:59:33.973Z,1018.08
2018-06-28T07:59:59.480Z,1018.09
2018-06-28T08:00:24.962Z,1018.06
2018-06-28T08:00:50.467Z,1018.08
2018-06-28T08:01:15.979Z,1018.06
2018-06-28T08:01:41.436Z,1018.06
2018-06-28T08:02:06.892Z,1018.04
2018-06-28T08:02:32.392Z,1018.13
2018-06-28T08:02:57.883Z,1018.09
2018-06-28T08:03:23.397Z,1018.11
2018-06-28T08:03:48.925Z,1018.15
2018-06-28T08:04:14.411Z,1018.14
2018-06-28T08:04:39.902Z,1018.12
2018-06-28T08:05:05.418Z,1018.12
2018-06-28T08:05:30.959Z,1018.14
2018-06-28T08:05:56.448Z,1018.13
2018-06-28T08:06:21.939Z,1018.11
2018-06-28T08:06:47.468Z,1018.12
2018-06-28T08:07:12.949Z,1018.1
2018-06-28T08:07:38.437Z,1018.08
2018-06-28T08:08:04.075Z,1018.09
2018-06-28T08:08:29.559Z,1018.11
2018-06-28T08:08:55.053Z,1018.13
2018-06-28T08:09:20.585Z,1018.09
2018-06-28T08:09:46.076Z,1018.11
2018-06-28T08:10:11.558Z,1018.1
2018-06-28T08:10:37.032Z,1018.08
2018-06-28T08:11:02.538Z,1018.11
2018-06-28T08:11:28.010Z,1018.06
2018-06-28T08:11:53.520Z,1018.04
2018-06-28T08:12:18.995Z,1018.08
2018-06-28T08:12:44.481Z,1018.06
2018-06-28T08:13:09.974Z,1018.06
2018-06-28T08:13:35.472Z,1018.1
2018-06-28T08:14:00.963Z,1018.11
2018-06-28T08:14:26.463Z,1018.04
2018-06-28T08:14:51.945Z,1018.08
2018-06-28T08:15:17.435Z,1018.04
2018-06-28T08:15:42.937Z,1018.09
2018-06-28T08:17:01.887Z,1018.04
2018-06-28T08:17:27.408Z,1018.05
2018-06-28T08:17:52.870Z,1018.1
2018-06-28T08:18:18.370Z,1018.08
2018-06-28T08:18:43.841Z,1018.09
2018-06-28T08:19:09.336Z,1018.13
2018-06-28T08:19:34.841Z,1018.12
2018-06-28T08:20:00.303Z,1018.08
2018-06-28T08:20:25.772Z,1018.12
2018-06-28T08:20:51.297Z,1018.14
2018-06-28T08:21:16.823Z,1018.18
2018-06-28T08:21:42.289Z,1018.12
2018-06-28T08:22:07.801Z,1018.08
2018-06-28T08:22:33.323Z,1018.12
2018-06-28T08:22:58.811Z,1018.16
2018-06-28T08:23:24.288Z,1018.14
2018-06-28T08:23:49.799Z,1018.17
2018-06-28T08:24:15.256Z,1018.14
2018-06-28T08:24:40.755Z,1018.16
2018-06-28T08:25:06.267Z,1018.12
2018-06-28T08:25:31.729Z,1018.08
2018-06-28T08:25:57.213Z,1018.15
2018-06-28T08:27:00.361Z,1018.11
2018-06-28T08:27:25.849Z,1018.15
2018-06-28T08:27:51.348Z,1018.07
2018-06-28T08:28:16.871Z,1018.03
2018-06-28T08:28:42.361Z,1018.13
2018-06-28T08:29:07.949Z,1018.13
2018-06-28T08:29:33.487Z,1018.13
2018-06-28T08:29:58.968Z,1018.09
2018-06-28T08:30:24.455Z,1018.12
2018-06-28T08:30:49.934Z,1018.11
2018-06-28T08:31:15.445Z,1018.1
2018-06-28T08:31:40.933Z,1018.13
2018-06-28T08:32:06.419Z,1018.14
2018-06-28T08:33:25.360Z,1018.09
2018-06-28T08:33:50.860Z,1018.03
2018-06-28T08:34:16.362Z,1018.06
2018-06-28T08:34:41.889Z,1018
2018-06-28T08:35:07.392Z,1017.99
2018-06-28T08:35:32.872Z,1018.03
2018-06-28T08:35:58.623Z,1018.01
2018-06-28T08:36:23.932Z,1018.04
2018-06-28T08:36:49.418Z,1018.02
2018-06-28T08:37:14.908Z,1018.01
2018-06-28T08:37:40.388Z,1017.98
2018-06-28T08:38:05.906Z,1017.97
2018-06-28T08:38:31.393Z,1018.02
2018-06-28T08:38:56.951Z,1018.02
2018-06-28T08:39:55.525Z,1018.02
2018-06-28T08:40:21.022Z,1017.96
2018-06-28T08:40:46.530Z,1018.04
2018-06-28T08:41:12.091Z,1017.96
2018-06-28T08:41:37.591Z,1017.96
2018-06-28T08:42:03.081Z,1018
2018-06-28T08:42:28.566Z,1018
2018-06-28T08:42:54.033Z,1017.94
2018-06-28T08:43:19.553Z,1017.96
2018-06-28T08:43:45.008Z,1017.96
2018-06-28T08:44:10.508Z,1017.99
2018-06-28T08:44:36.029Z,1017.96
2018-06-28T08:45:01.502Z,1017.97
2018-06-28T08:45:27.007Z,1017.96
2018-06-28T08:45:52.522Z,1017.96
2018-06-28T08:46:18.021Z,1017.98
2018-06-28T08:46:43.544Z,1017.94
2018-06-28T08:47:09.034Z,1017.95
2018-06-28T08:47:34.555Z,1017.96
2018-06-28T08:48:00.054Z,1017.97
2018-06-28T08:48:25.546Z,1017.96
2018-06-28T08:48:51.061Z,1017.96
2018-06-28T08:49:16.538Z,1017.98
2018-06-28T08:49:42.020Z,1017.96
2018-06-28T08:50:07.533Z,1018.01
2018-06-28T08:50:33.008Z,1017.95
2018-06-28T08:50:58.510Z,1017.92
2018-06-28T08:51:24.043Z,1017.95
2018-06-28T08:51:49.563Z,1017.92
2018-06-28T08:52:15.028Z,1017.93
2018-06-28T08:52:40.545Z,1017.97
2018-06-28T08:53:06.066Z,1017.95
2018-06-28T08:53:31.548Z,1017.97
2018-06-28T08:53:57.045Z,1017.92
2018-06-28T08:54:22.541Z,1017.94
2018-06-28T08:54:48.068Z,1017.99
2018-06-28T08:55:13.535Z,1018.03
2018-06-28T08:55:39.006Z,1018.01
2018-06-28T08:56:04.507Z,1017.98
2018-06-28T08:56:30.011Z,1017.98
2018-06-28T08:56:55.532Z,1017.93
2018-06-28T08:57:20.990Z,1017.93
2018-06-28T08:57:46.508Z,1017.93
2018-06-28T08:58:12.037Z,1017.91
2018-06-28T08:58:37.473Z,1017.92
2018-06-28T08:59:03.084Z,1017.93
2018-06-28T08:59:28.526Z,1017.93
2018-06-28T08:59:54.033Z,1017.93
2018-06-28T09:00:19.522Z,1017.9
2018-06-28T09:00:45.031Z,1017.96
2018-06-28T09:01:10.538Z,1018.03
2018-06-28T09:01:36.041Z,1017.96
2018-06-28T09:02:01.529Z,1017.96
2018-06-28T09:02:27.020Z,1017.93
2018-06-28T09:02:52.545Z,1017.89
2018-06-28T09:03:18.040Z,1017.91
2018-06-28T09:03:43.544Z,1017.95
2018-06-28T09:04:09.042Z,1017.95
2018-06-28T09:04:34.591Z,1017.94
2018-06-28T09:05:00.141Z,1017.9
2018-06-28T09:05:25.649Z,1017.88
2018-06-28T09:05:51.140Z,1017.89
2018-06-28T09:06:16.641Z,1017.85
2018-06-28T09:06:42.113Z,1017.91
2018-06-28T09:07:07.745Z,1017.86
2018-06-28T09:07:33.191Z,1017.85
2018-06-28T09:07:58.656Z,1017.88
2018-06-28T09:08:24.104Z,1017.88
2018-06-28T09:08:49.557Z,1017.88
2018-06-28T09:09:15.061Z,1017.89
2018-06-28T09:09:40.600Z,1017.87
2018-06-28T09:10:06.079Z,1017.85
2018-06-28T09:10:31.556Z,1017.87
2018-06-28T09:11:35.194Z,1017.84
2018-06-28T09:12:00.691Z,1017.86
2018-06-28T09:12:26.185Z,1017.86
2018-06-28T09:12:51.682Z,1017.91
2018-06-28T09:13:17.169Z,1017.86
2018-06-28T09:13:42.691Z,1017.82
2018-06-28T09:14:08.169Z,1017.87
2018-06-28T09:14:33.644Z,1017.86
2018-06-28T09:14:59.180Z,1017.85
2018-06-28T09:15:24.738Z,1017.81
2018-06-28T09:15:50.169Z,1017.79
2018-06-28T09:16:15.660Z,1017.84
2018-06-28T09:16:41.126Z,1017.91
2018-06-28T09:17:06.576Z,1017.81
2018-06-28T09:17:32.081Z,1017.91
2018-06-28T09:17:57.564Z,1017.84
2018-06-28T09:18:23.039Z,1017.77
2018-06-28T09:18:48.559Z,1017.8
2018-06-28T09:19:14.054Z,1017.8
2018-06-28T09:19:39.560Z,1017.8
2018-06-28T09:20:58.540Z,1017.88
2018-06-28T09:21:24.043Z,1017.83
2018-06-28T09:21:49.513Z,1017.79
2018-06-28T09:22:15.041Z,1017.82
2018-06-28T09:22:40.539Z,1017.76
2018-06-28T09:23:06.098Z,1017.77
2018-06-28T09:23:31.499Z,1017.76
2018-06-28T09:23:57.001Z,1017.72
2018-06-28T09:24:22.508Z,1017.76
2018-06-28T09:24:48.007Z,1017.73
2018-06-28T09:25:13.486Z,1017.84
2018-06-28T09:25:38.987Z,1017.89
2018-06-28T09:26:04.476Z,1017.74
2018-06-28T09:26:29.984Z,1017.8
2018-06-28T09:26:55.477Z,1017.76
2018-06-28T09:27:21.005Z,1017.79